sensor_id;sensor_type;location;lat;lon;timestamp;P1;durP1;ratioP1;P2;durP2;ratioP2
3299;SDS011;1662;49.310;8.134;2023-02-28T00:00:32;4.85;;;4.65;;
3299;SDS011;1662;49.310;8.134;2023-02-28T00:02:58;4.75;;;4.55;;
3299;SDS011;1662;49.310;8.134;2023-02-28T00:05:25;5.30;;;5.00;;
3299;SDS011;1662;49.310;8.134;2023-02-28T00:07:51;4.80;;;4.60;;
3299;SDS011;1662;49.310;8.134;2023-02-28T00:10:18;5.10;;;4.70;;
3299;SDS011;1662;49.310;8.134;2023-02-28T00:12:49;4.70;;;4.50;;
3299;SDS011;1662;49.310;8.134;2023-02-28T00:15:15;5.20;;;4.93;;
3299;SDS011;1662;49.310;8.134;2023-02-28T00:17:41;4.80;;;4.60;;
3299;SDS011;1662;49.310;8.134;2023-02-28T00:20:10;5.10;;;4.80;;
3299;SDS011;1662;49.310;8.134;2023-02-28T00:22:41;4.90;;;4.70;;
3299;SDS011;1662;49.310;8.134;2023-02-28T00:25:08;4.60;;;4.40;;
3299;SDS011;1662;49.310;8.134;2023-02-28T00:27:36;5.95;;;5.53;;
3299;SDS011;1662;49.310;8.134;2023-02-28T00:30:05;5.50;;;5.20;;
3299;SDS011;1662;49.310;8.134;2023-02-28T00:32:33;5.00;;;4.70;;
3299;SDS011;1662;49.310;8.134;2023-02-28T00:35:01;5.10;;;4.82;;
3299;SDS011;1662;49.310;8.134;2023-02-28T00:37:27;4.70;;;4.40;;
3299;SDS011;1662;49.310;8.134;2023-02-28T00:39:53;4.80;;;4.53;;
3299;SDS011;1662;49.310;8.134;2023-02-28T00:42:21;4.55;;;4.38;;
3299;SDS011;1662;49.310;8.134;2023-02-28T00:44:46;4.90;;;4.70;;
3299;SDS011;1662;49.310;8.134;2023-02-28T00:47:12;5.03;;;4.80;;
3299;SDS011;1662;49.310;8.134;2023-02-28T00:49:38;4.93;;;4.73;;
3299;SDS011;1662;49.310;8.134;2023-02-28T00:52:03;4.70;;;4.60;;
3299;SDS011;1662;49.310;8.134;2023-02-28T00:54:29;5.10;;;4.80;;
3299;SDS011;1662;49.310;8.134;2023-02-28T00:56:54;4.57;;;4.37;;
3299;SDS011;1662;49.310;8.134;2023-02-28T00:59:20;4.90;;;4.60;;
3299;SDS011;1662;49.310;8.134;2023-02-28T01:01:46;6.33;;;5.90;;
3299;SDS011;1662;49.310;8.134;2023-02-28T01:04:12;5.17;;;4.90;;
3299;SDS011;1662;49.310;8.134;2023-02-28T01:06:38;4.40;;;4.30;;
3299;SDS011;1662;49.310;8.134;2023-02-28T01:09:04;5.20;;;4.80;;
3299;SDS011;1662;49.310;8.134;2023-02-28T01:11:32;5.50;;;5.20;;
3299;SDS011;1662;49.310;8.134;2023-02-28T01:13:58;5.35;;;5.00;;
3299;SDS011;1662;49.310;8.134;2023-02-28T01:16:24;5.40;;;5.20;;
3299;SDS011;1662;49.310;8.134;2023-02-28T01:18:50;5.53;;;5.22;;
3299;SDS011;1662;49.310;8.134;2023-02-28T01:21:16;5.33;;;5.13;;
3299;SDS011;1662;49.310;8.134;2023-02-28T01:23:43;5.68;;;5.18;;
3299;SDS011;1662;49.310;8.134;2023-02-28T01:26:13;5.83;;;5.33;;
3299;SDS011;1662;49.310;8.134;2023-02-28T01:28:43;5.32;;;5.13;;
3299;SDS011;1662;49.310;8.134;2023-02-28T01:31:09;5.60;;;5.30;;
3299;SDS011;1662;49.310;8.134;2023-02-28T01:33:36;5.38;;;4.95;;
3299;SDS011;1662;49.310;8.134;2023-02-28T01:36:03;5.55;;;5.25;;
3299;SDS011;1662;49.310;8.134;2023-02-28T01:38:31;4.88;;;4.68;;
3299;SDS011;1662;49.310;8.134;2023-02-28T01:40:57;5.97;;;5.40;;
3299;SDS011;1662;49.310;8.134;2023-02-28T01:43:30;5.13;;;4.93;;
3299;SDS011;1662;49.310;8.134;2023-02-28T01:45:58;5.65;;;5.45;;
3299;SDS011;1662;49.310;8.134;2023-02-28T01:48:34;5.38;;;5.15;;
3299;SDS011;1662;49.310;8.134;2023-02-28T01:51:05;5.63;;;4.75;;
3299;SDS011;1662;49.310;8.134;2023-02-28T01:53:40;6.00;;;5.60;;
3299;SDS011;1662;49.310;8.134;2023-02-28T01:56:12;5.15;;;4.70;;
3299;SDS011;1662;49.310;8.134;2023-02-28T01:58:46;5.80;;;5.50;;
3299;SDS011;1662;49.310;8.134;2023-02-28T02:01:12;5.63;;;5.18;;
3299;SDS011;1662;49.310;8.134;2023-02-28T02:03:46;5.72;;;5.32;;
3299;SDS011;1662;49.310;8.134;2023-02-28T02:06:24;6.45;;;5.75;;
3299;SDS011;1662;49.310;8.134;2023-02-28T02:08:54;5.90;;;5.45;;
3299;SDS011;1662;49.310;8.134;2023-02-28T02:11:20;5.27;;;4.90;;
3299;SDS011;1662;49.310;8.134;2023-02-28T02:25:12;5.68;;;5.32;;
3299;SDS011;1662;49.310;8.134;2023-02-28T02:43:48;6.90;;;6.40;;
3299;SDS011;1662;49.310;8.134;2023-02-28T02:46:25;6.55;;;6.05;;
3299;SDS011;1662;49.310;8.134;2023-02-28T02:48:59;6.60;;;6.20;;
3299;SDS011;1662;49.310;8.134;2023-02-28T02:51:29;6.35;;;6.00;;
3299;SDS011;1662;49.310;8.134;2023-02-28T02:54:05;5.88;;;5.57;;
3299;SDS011;1662;49.310;8.134;2023-02-28T02:56:36;5.60;;;5.35;;
3299;SDS011;1662;49.310;8.134;2023-02-28T02:59:07;6.65;;;6.15;;
3299;SDS011;1662;49.310;8.134;2023-02-28T03:01:36;6.20;;;5.70;;
3299;SDS011;1662;49.310;8.134;2023-02-28T03:04:07;6.15;;;5.75;;
3299;SDS011;1662;49.310;8.134;2023-02-28T03:06:38;6.43;;;5.93;;
3299;SDS011;1662;49.310;8.134;2023-02-28T03:09:04;6.77;;;6.27;;
3299;SDS011;1662;49.310;8.134;2023-02-28T03:11:32;6.50;;;6.10;;
3299;SDS011;1662;49.310;8.134;2023-02-28T03:17:02;8.63;;;6.15;;
3299;SDS011;1662;49.310;8.134;2023-02-28T03:33:20;7.35;;;6.75;;
3299;SDS011;1662;49.310;8.134;2023-02-28T03:36:00;7.75;;;7.15;;
3299;SDS011;1662;49.310;8.134;2023-02-28T03:38:33;6.97;;;6.45;;
3299;SDS011;1662;49.310;8.134;2023-02-28T03:41:14;6.63;;;6.22;;
3299;SDS011;1662;49.310;8.134;2023-02-28T03:43:50;9.23;;;6.28;;
3299;SDS011;1662;49.310;8.134;2023-02-28T03:46:31;6.28;;;5.82;;
3299;SDS011;1662;49.310;8.134;2023-02-28T03:49:07;6.75;;;6.28;;
3299;SDS011;1662;49.310;8.134;2023-02-28T03:51:40;7.13;;;6.47;;
3299;SDS011;1662;49.310;8.134;2023-02-28T03:54:12;6.18;;;5.78;;
3299;SDS011;1662;49.310;8.134;2023-02-28T03:56:43;6.25;;;5.85;;
3299;SDS011;1662;49.310;8.134;2023-02-28T04:01:55;7.45;;;6.85;;
3299;SDS011;1662;49.310;8.134;2023-02-28T04:04:23;7.72;;;7.15;;
3299;SDS011;1662;49.310;8.134;2023-02-28T04:06:49;7.13;;;6.73;;
3299;SDS011;1662;49.310;8.134;2023-02-28T04:09:16;7.50;;;7.00;;
3299;SDS011;1662;49.310;8.134;2023-02-28T04:11:43;6.70;;;6.30;;
3299;SDS011;1662;49.310;8.134;2023-02-28T04:14:12;7.35;;;6.60;;
3299;SDS011;1662;49.310;8.134;2023-02-28T04:16:39;7.13;;;6.53;;
3299;SDS011;1662;49.310;8.134;2023-02-28T04:19:06;6.82;;;6.35;;
3299;SDS011;1662;49.310;8.134;2023-02-28T04:21:35;7.88;;;7.28;;
3299;SDS011;1662;49.310;8.134;2023-02-28T04:24:09;6.82;;;6.22;;
3299;SDS011;1662;49.310;8.134;2023-02-28T04:26:39;6.30;;;5.90;;
3299;SDS011;1662;49.310;8.134;2023-02-28T04:29:06;7.25;;;6.63;;
3299;SDS011;1662;49.310;8.134;2023-02-28T04:31:32;6.78;;;6.30;;
3299;SDS011;1662;49.310;8.134;2023-02-28T04:33:58;6.40;;;6.00;;
3299;SDS011;1662;49.310;8.134;2023-02-28T04:36:25;6.20;;;5.78;;
3299;SDS011;1662;49.310;8.134;2023-02-28T04:38:50;7.43;;;6.73;;
3299;SDS011;1662;49.310;8.134;2023-02-28T04:41:16;6.87;;;6.37;;
3299;SDS011;1662;49.310;8.134;2023-02-28T04:43:42;7.07;;;6.57;;
3299;SDS011;1662;49.310;8.134;2023-02-28T04:46:08;7.27;;;6.60;;
3299;SDS011;1662;49.310;8.134;2023-02-28T04:48:35;6.95;;;6.35;;
3299;SDS011;1662;49.310;8.134;2023-02-28T04:51:03;6.47;;;6.07;;
3299;SDS011;1662;49.310;8.134;2023-02-28T04:53:33;6.55;;;6.15;;
3299;SDS011;1662;49.310;8.134;2023-02-28T04:56:00;7.05;;;6.57;;
3299;SDS011;1662;49.310;8.134;2023-02-28T04:58:26;6.67;;;6.13;;
3299;SDS011;1662;49.310;8.134;2023-02-28T05:00:53;7.03;;;6.35;;
3299;SDS011;1662;49.310;8.134;2023-02-28T05:03:22;6.22;;;5.72;;
3299;SDS011;1662;49.310;8.134;2023-02-28T05:05:49;6.43;;;6.03;;
3299;SDS011;1662;49.310;8.134;2023-02-28T05:08:15;6.60;;;6.20;;
3299;SDS011;1662;49.310;8.134;2023-02-28T05:10:41;6.97;;;6.47;;
3299;SDS011;1662;49.310;8.134;2023-02-28T05:13:06;7.20;;;6.60;;
3299;SDS011;1662;49.310;8.134;2023-02-28T05:15:34;6.93;;;6.45;;
3299;SDS011;1662;49.310;8.134;2023-02-28T05:17:59;6.47;;;6.03;;
3299;SDS011;1662;49.310;8.134;2023-02-28T05:20:25;8.60;;;7.77;;
3299;SDS011;1662;49.310;8.134;2023-02-28T05:22:50;6.60;;;6.20;;
3299;SDS011;1662;49.310;8.134;2023-02-28T05:25:19;7.00;;;6.53;;
3299;SDS011;1662;49.310;8.134;2023-02-28T05:27:47;6.60;;;6.07;;
3299;SDS011;1662;49.310;8.134;2023-02-28T05:30:13;7.00;;;6.55;;
3299;SDS011;1662;49.310;8.134;2023-02-28T05:32:40;7.57;;;6.97;;
3299;SDS011;1662;49.310;8.134;2023-02-28T05:35:12;6.90;;;6.30;;
3299;SDS011;1662;49.310;8.134;2023-02-28T05:37:38;6.95;;;6.43;;
3299;SDS011;1662;49.310;8.134;2023-02-28T05:40:05;7.10;;;6.47;;
3299;SDS011;1662;49.310;8.134;2023-02-28T05:42:32;7.45;;;6.63;;
3299;SDS011;1662;49.310;8.134;2023-02-28T05:44:58;7.03;;;6.53;;
3299;SDS011;1662;49.310;8.134;2023-02-28T05:47:24;7.30;;;6.80;;
3299;SDS011;1662;49.310;8.134;2023-02-28T05:49:52;7.85;;;7.22;;
3299;SDS011;1662;49.310;8.134;2023-02-28T05:52:20;7.97;;;7.28;;
3299;SDS011;1662;49.310;8.134;2023-02-28T05:54:46;7.40;;;6.63;;
3299;SDS011;1662;49.310;8.134;2023-02-28T05:57:12;7.63;;;7.03;;
3299;SDS011;1662;49.310;8.134;2023-02-28T05:59:40;7.93;;;7.10;;
3299;SDS011;1662;49.310;8.134;2023-02-28T06:02:12;8.00;;;7.40;;
3299;SDS011;1662;49.310;8.134;2023-02-28T06:04:38;7.43;;;6.93;;
3299;SDS011;1662;49.310;8.134;2023-02-28T06:07:05;7.35;;;6.82;;
3299;SDS011;1662;49.310;8.134;2023-02-28T06:09:32;6.75;;;6.25;;
3299;SDS011;1662;49.310;8.134;2023-02-28T06:12:01;7.60;;;6.67;;
3299;SDS011;1662;49.310;8.134;2023-02-28T06:14:30;6.20;;;5.90;;
3299;SDS011;1662;49.310;8.134;2023-02-28T06:16:57;10.20;;;6.32;;
3299;SDS011;1662;49.310;8.134;2023-02-28T06:19:23;6.60;;;6.20;;
3299;SDS011;1662;49.310;8.134;2023-02-28T06:21:50;7.78;;;7.07;;
3299;SDS011;1662;49.310;8.134;2023-02-28T06:24:17;7.20;;;6.50;;
3299;SDS011;1662;49.310;8.134;2023-02-28T06:26:48;7.05;;;6.55;;
3299;SDS011;1662;49.310;8.134;2023-02-28T06:29:14;7.27;;;6.77;;
3299;SDS011;1662;49.310;8.134;2023-02-28T06:31:43;6.57;;;6.07;;
3299;SDS011;1662;49.310;8.134;2023-02-28T06:34:10;7.65;;;6.72;;
3299;SDS011;1662;49.310;8.134;2023-02-28T06:36:41;7.45;;;6.75;;
3299;SDS011;1662;49.310;8.134;2023-02-28T06:39:08;7.07;;;6.38;;
3299;SDS011;1662;49.310;8.134;2023-02-28T06:41:34;6.28;;;5.88;;
3299;SDS011;1662;49.310;8.134;2023-02-28T06:44:03;6.57;;;6.05;;
3299;SDS011;1662;49.310;8.134;2023-02-28T06:46:31;7.95;;;7.15;;
3299;SDS011;1662;49.310;8.134;2023-02-28T06:48:57;7.45;;;6.80;;
3299;SDS011;1662;49.310;8.134;2023-02-28T06:51:23;7.90;;;7.10;;
3299;SDS011;1662;49.310;8.134;2023-02-28T06:53:49;7.00;;;6.45;;
3299;SDS011;1662;49.310;8.134;2023-02-28T06:56:16;7.40;;;6.65;;
3299;SDS011;1662;49.310;8.134;2023-02-28T06:58:45;7.55;;;6.85;;
3299;SDS011;1662;49.310;8.134;2023-02-28T07:01:13;6.70;;;6.30;;
3299;SDS011;1662;49.310;8.134;2023-02-28T07:03:38;7.20;;;6.50;;
3299;SDS011;1662;49.310;8.134;2023-02-28T07:06:05;10.03;;;7.53;;
3299;SDS011;1662;49.310;8.134;2023-02-28T07:08:31;8.05;;;7.32;;
3299;SDS011;1662;49.310;8.134;2023-02-28T07:11:00;7.93;;;7.05;;
3299;SDS011;1662;49.310;8.134;2023-02-28T07:13:29;10.20;;;7.57;;
3299;SDS011;1662;49.310;8.134;2023-02-28T07:15:58;7.73;;;7.03;;
3299;SDS011;1662;49.310;8.134;2023-02-28T07:18:26;8.13;;;7.43;;
3299;SDS011;1662;49.310;8.134;2023-02-28T07:20:52;7.70;;;6.97;;
3299;SDS011;1662;49.310;8.134;2023-02-28T07:23:18;7.57;;;6.90;;
3299;SDS011;1662;49.310;8.134;2023-02-28T07:25:45;8.32;;;7.65;;
3299;SDS011;1662;49.310;8.134;2023-02-28T07:28:13;8.50;;;7.65;;
3299;SDS011;1662;49.310;8.134;2023-02-28T07:30:39;8.23;;;7.43;;
3299;SDS011;1662;49.310;8.134;2023-02-28T07:33:06;8.02;;;7.40;;
3299;SDS011;1662;49.310;8.134;2023-02-28T07:35:34;7.85;;;7.25;;
3299;SDS011;1662;49.310;8.134;2023-02-28T07:38:00;8.43;;;7.73;;
3299;SDS011;1662;49.310;8.134;2023-02-28T07:40:25;15.50;;;9.90;;
3299;SDS011;1662;49.310;8.134;2023-02-28T07:42:51;8.90;;;8.10;;
3299;SDS011;1662;49.310;8.134;2023-02-28T07:45:17;9.00;;;8.20;;
3299;SDS011;1662;49.310;8.134;2023-02-28T07:47:44;7.65;;;7.00;;
3299;SDS011;1662;49.310;8.134;2023-02-28T07:50:11;8.50;;;7.80;;
3299;SDS011;1662;49.310;8.134;2023-02-28T07:52:40;8.25;;;7.55;;
3299;SDS011;1662;49.310;8.134;2023-02-28T07:55:09;8.95;;;8.13;;
3299;SDS011;1662;49.310;8.134;2023-02-28T07:57:35;12.88;;;9.63;;
3299;SDS011;1662;49.310;8.134;2023-02-28T08:00:04;8.57;;;7.85;;
3299;SDS011;1662;49.310;8.134;2023-02-28T08:02:30;9.05;;;8.25;;
3299;SDS011;1662;49.310;8.134;2023-02-28T08:04:56;8.17;;;7.40;;
3299;SDS011;1662;49.310;8.134;2023-02-28T08:07:24;9.00;;;8.10;;
3299;SDS011;1662;49.310;8.134;2023-02-28T08:09:50;9.18;;;7.90;;
3299;SDS011;1662;49.310;8.134;2023-02-28T08:12:18;9.35;;;8.23;;
3299;SDS011;1662;49.310;8.134;2023-02-28T08:14:46;8.10;;;7.40;;
3299;SDS011;1662;49.310;8.134;2023-02-28T08:17:11;7.70;;;7.00;;
3299;SDS011;1662;49.310;8.134;2023-02-28T08:19:37;8.00;;;7.30;;
3299;SDS011;1662;49.310;8.134;2023-02-28T08:22:03;8.40;;;7.60;;
3299;SDS011;1662;49.310;8.134;2023-02-28T08:24:29;9.17;;;8.10;;
3299;SDS011;1662;49.310;8.134;2023-02-28T08:26:55;9.23;;;8.43;;
3299;SDS011;1662;49.310;8.134;2023-02-28T08:29:21;8.17;;;7.50;;
3299;SDS011;1662;49.310;8.134;2023-02-28T08:31:46;9.13;;;8.33;;
3299;SDS011;1662;49.310;8.134;2023-02-28T08:34:13;10.03;;;8.97;;
3299;SDS011;1662;49.310;8.134;2023-02-28T08:36:40;8.38;;;7.68;;
3299;SDS011;1662;49.310;8.134;2023-02-28T08:39:06;8.60;;;7.90;;
3299;SDS011;1662;49.310;8.134;2023-02-28T08:41:32;8.17;;;7.30;;
3299;SDS011;1662;49.310;8.134;2023-02-28T08:43:58;9.68;;;8.77;;
3299;SDS011;1662;49.310;8.134;2023-02-28T08:46:25;8.05;;;7.30;;
3299;SDS011;1662;49.310;8.134;2023-02-28T08:48:54;8.87;;;7.70;;
3299;SDS011;1662;49.310;8.134;2023-02-28T08:51:24;9.25;;;8.35;;
3299;SDS011;1662;49.310;8.134;2023-02-28T08:53:57;8.43;;;7.55;;
3299;SDS011;1662;49.310;8.134;2023-02-28T08:56:25;9.05;;;8.25;;
3299;SDS011;1662;49.310;8.134;2023-02-28T08:58:51;8.90;;;7.90;;
3299;SDS011;1662;49.310;8.134;2023-02-28T09:01:21;8.27;;;7.55;;
3299;SDS011;1662;49.310;8.134;2023-02-28T09:03:49;10.30;;;8.48;;
3299;SDS011;1662;49.310;8.134;2023-02-28T09:06:16;9.52;;;8.57;;
3299;SDS011;1662;49.310;8.134;2023-02-28T09:08:43;10.80;;;8.80;;
3299;SDS011;1662;49.310;8.134;2023-02-28T09:11:09;9.05;;;8.25;;
3299;SDS011;1662;49.310;8.134;2023-02-28T09:13:36;13.43;;;9.48;;
3299;SDS011;1662;49.310;8.134;2023-02-28T09:16:04;10.38;;;7.53;;
3299;SDS011;1662;49.310;8.134;2023-02-28T09:18:35;8.75;;;7.93;;
3299;SDS011;1662;49.310;8.134;2023-02-28T09:21:09;9.38;;;8.52;;
3299;SDS011;1662;49.310;8.134;2023-02-28T09:23:38;10.50;;;9.43;;
3299;SDS011;1662;49.310;8.134;2023-02-28T09:26:04;11.43;;;9.30;;
3299;SDS011;1662;49.310;8.134;2023-02-28T09:28:30;11.07;;;9.95;;
3299;SDS011;1662;49.310;8.134;2023-02-28T09:30:56;12.97;;;10.43;;
3299;SDS011;1662;49.310;8.134;2023-02-28T09:33:23;11.75;;;10.52;;
3299;SDS011;1662;49.310;8.134;2023-02-28T09:35:50;11.00;;;9.97;;
3299;SDS011;1662;49.310;8.134;2023-02-28T09:38:16;10.45;;;9.45;;
3299;SDS011;1662;49.310;8.134;2023-02-28T09:40:50;11.48;;;10.40;;
3299;SDS011;1662;49.310;8.134;2023-02-28T09:43:22;10.88;;;9.77;;
3299;SDS011;1662;49.310;8.134;2023-02-28T09:45:56;12.57;;;10.10;;
3299;SDS011;1662;49.310;8.134;2023-02-28T09:48:35;10.77;;;9.75;;
3299;SDS011;1662;49.310;8.134;2023-02-28T09:53:47;10.35;;;9.45;;
3299;SDS011;1662;49.310;8.134;2023-02-28T09:56:24;11.43;;;10.23;;
3299;SDS011;1662;49.310;8.134;2023-02-28T10:04:46;11.40;;;10.32;;
3299;SDS011;1662;49.310;8.134;2023-02-28T10:13:04;10.88;;;9.77;;
3299;SDS011;1662;49.310;8.134;2023-02-28T10:15:51;11.20;;;10.20;;
3299;SDS011;1662;49.310;8.134;2023-02-28T10:18:31;11.57;;;10.23;;
3299;SDS011;1662;49.310;8.134;2023-02-28T10:21:21;13.70;;;10.85;;
3299;SDS011;1662;49.310;8.134;2023-02-28T10:23:48;10.20;;;9.30;;
3299;SDS011;1662;49.310;8.134;2023-02-28T10:26:17;10.63;;;9.73;;
3299;SDS011;1662;49.310;8.134;2023-02-28T10:28:45;10.15;;;9.30;;
3299;SDS011;1662;49.310;8.134;2023-02-28T10:31:18;11.13;;;9.90;;
3299;SDS011;1662;49.310;8.134;2023-02-28T10:33:44;9.82;;;9.02;;
3299;SDS011;1662;49.310;8.134;2023-02-28T10:36:12;12.33;;;10.70;;
3299;SDS011;1662;49.310;8.134;2023-02-28T10:38:41;10.05;;;9.10;;
3299;SDS011;1662;49.310;8.134;2023-02-28T10:41:08;9.65;;;8.75;;
3299;SDS011;1662;49.310;8.134;2023-02-28T10:43:37;11.30;;;10.10;;
3299;SDS011;1662;49.310;8.134;2023-02-28T10:51:08;10.75;;;9.70;;
3299;SDS011;1662;49.310;8.134;2023-02-28T11:01:55;11.48;;;10.38;;
3299;SDS011;1662;49.310;8.134;2023-02-28T11:04:19;10.80;;;9.20;;
3299;SDS011;1662;49.310;8.134;2023-02-28T11:09:28;13.25;;;11.85;;
3299;SDS011;1662;49.310;8.134;2023-02-28T11:11:54;16.52;;;13.00;;
3299;SDS011;1662;49.310;8.134;2023-02-28T11:14:22;18.50;;;13.98;;
3299;SDS011;1662;49.310;8.134;2023-02-28T11:16:51;11.65;;;10.65;;
3299;SDS011;1662;49.310;8.134;2023-02-28T11:19:28;21.85;;;14.82;;
3299;SDS011;1662;49.310;8.134;2023-02-28T11:22:04;20.50;;;14.35;;
3299;SDS011;1662;49.310;8.134;2023-02-28T11:24:34;13.52;;;12.07;;
3299;SDS011;1662;49.310;8.134;2023-02-28T11:27:05;13.40;;;11.70;;
3299;SDS011;1662;49.310;8.134;2023-02-28T11:29:31;15.50;;;13.63;;
3299;SDS011;1662;49.310;8.134;2023-02-28T11:32:13;20.83;;;17.05;;
3299;SDS011;1662;49.310;8.134;2023-02-28T11:34:46;18.83;;;14.25;;
3299;SDS011;1662;49.310;8.134;2023-02-28T11:37:24;17.00;;;12.65;;
3299;SDS011;1662;49.310;8.134;2023-02-28T11:39:52;13.73;;;11.80;;
3299;SDS011;1662;49.310;8.134;2023-02-28T11:45:15;12.00;;;10.75;;
3299;SDS011;1662;49.310;8.134;2023-02-28T11:48:02;27.95;;;15.65;;
3299;SDS011;1662;49.310;8.134;2023-02-28T11:55:45;18.88;;;13.30;;
3299;SDS011;1662;49.310;8.134;2023-02-28T12:01:33;12.63;;;11.43;;
3299;SDS011;1662;49.310;8.134;2023-02-28T12:04:33;15.02;;;12.77;;
3299;SDS011;1662;49.310;8.134;2023-02-28T12:26:12;12.95;;;11.75;;
3299;SDS011;1662;49.310;8.134;2023-02-28T12:29:07;15.05;;;13.32;;
3299;SDS011;1662;49.310;8.134;2023-02-28T12:31:45;15.13;;;13.68;;
3299;SDS011;1662;49.310;8.134;2023-02-28T12:35:16;15.35;;;13.82;;
3299;SDS011;1662;49.310;8.134;2023-02-28T12:37:14;15.15;;;13.02;;
3299;SDS011;1662;49.310;8.134;2023-02-28T12:39:45;14.32;;;13.02;;
3299;SDS011;1662;49.310;8.134;2023-02-28T12:42:29;14.70;;;13.23;;
3299;SDS011;1662;49.310;8.134;2023-02-28T12:47:36;38.35;;;25.00;;
3299;SDS011;1662;49.310;8.134;2023-02-28T12:50:06;59.25;;;31.60;;
3299;SDS011;1662;49.310;8.134;2023-02-28T12:55:26;22.50;;;17.17;;
3299;SDS011;1662;49.310;8.134;2023-02-28T12:58:30;20.58;;;15.27;;
3299;SDS011;1662;49.310;8.134;2023-02-28T13:09:20;24.95;;;17.90;;
3299;SDS011;1662;49.310;8.134;2023-02-28T13:11:49;33.50;;;23.87;;
3299;SDS011;1662;49.310;8.134;2023-02-28T13:14:20;16.63;;;15.07;;
3299;SDS011;1662;49.310;8.134;2023-02-28T13:19:33;15.90;;;14.37;;
3299;SDS011;1662;49.310;8.134;2023-02-28T13:22:02;16.80;;;15.00;;
3299;SDS011;1662;49.310;8.134;2023-02-28T13:29:51;23.67;;;18.23;;
3299;SDS011;1662;49.310;8.134;2023-02-28T13:32:33;21.27;;;17.80;;
3299;SDS011;1662;49.310;8.134;2023-02-28T13:37:36;14.60;;;13.33;;
3299;SDS011;1662;49.310;8.134;2023-02-28T13:42:48;14.30;;;13.07;;
3299;SDS011;1662;49.310;8.134;2023-02-28T13:45:22;16.73;;;13.77;;
3299;SDS011;1662;49.310;8.134;2023-02-28T13:55:33;13.53;;;12.13;;
3299;SDS011;1662;49.310;8.134;2023-02-28T14:06:47;14.03;;;12.83;;
3299;SDS011;1662;49.310;8.134;2023-02-28T14:11:41;15.23;;;13.93;;
3299;SDS011;1662;49.310;8.134;2023-02-28T14:14:09;15.07;;;13.67;;
3299;SDS011;1662;49.310;8.134;2023-02-28T14:16:54;14.63;;;13.33;;
3299;SDS011;1662;49.310;8.134;2023-02-28T14:19:26;14.90;;;13.60;;
3299;SDS011;1662;49.310;8.134;2023-02-28T14:25:06;13.87;;;12.67;;
3299;SDS011;1662;49.310;8.134;2023-02-28T14:38:27;15.17;;;13.90;;
3299;SDS011;1662;49.310;8.134;2023-02-28T14:40:57;15.97;;;14.67;;
3299;SDS011;1662;49.310;8.134;2023-02-28T14:43:26;16.30;;;14.83;;
3299;SDS011;1662;49.310;8.134;2023-02-28T14:45:57;14.30;;;13.10;;
3299;SDS011;1662;49.310;8.134;2023-02-28T14:48:25;14.93;;;13.67;;
3299;SDS011;1662;49.310;8.134;2023-02-28T14:51:00;16.13;;;14.70;;
3299;SDS011;1662;49.310;8.134;2023-02-28T14:53:30;16.23;;;14.83;;
3299;SDS011;1662;49.310;8.134;2023-02-28T14:56:02;15.50;;;14.10;;
3299;SDS011;1662;49.310;8.134;2023-02-28T14:58:29;14.93;;;13.63;;
3299;SDS011;1662;49.310;8.134;2023-02-28T15:01:00;15.80;;;14.40;;
3299;SDS011;1662;49.310;8.134;2023-02-28T15:05:56;14.53;;;13.20;;
3299;SDS011;1662;49.310;8.134;2023-02-28T15:08:30;15.67;;;14.10;;
3299;SDS011;1662;49.310;8.134;2023-02-28T15:13:41;15.60;;;14.30;;
3299;SDS011;1662;49.310;8.134;2023-02-28T15:18:49;15.83;;;14.53;;
3299;SDS011;1662;49.310;8.134;2023-02-28T15:23:54;14.93;;;13.53;;
3299;SDS011;1662;49.310;8.134;2023-02-28T15:26:31;14.60;;;13.40;;
3299;SDS011;1662;49.310;8.134;2023-02-28T15:29:11;14.87;;;13.57;;
3299;SDS011;1662;49.310;8.134;2023-02-28T15:31:42;14.83;;;13.53;;
3299;SDS011;1662;49.310;8.134;2023-02-28T15:34:21;15.20;;;13.80;;
3299;SDS011;1662;49.310;8.134;2023-02-28T15:40:16;13.33;;;12.10;;
3299;SDS011;1662;49.310;8.134;2023-02-28T15:43:03;15.33;;;13.90;;
3299;SDS011;1662;49.310;8.134;2023-02-28T15:45:50;15.63;;;14.00;;
3299;SDS011;1662;49.310;8.134;2023-02-28T15:50:49;16.83;;;15.23;;
3299;SDS011;1662;49.310;8.134;2023-02-28T15:53:19;19.10;;;17.10;;
3299;SDS011;1662;49.310;8.134;2023-02-28T15:55:54;17.00;;;15.30;;
3299;SDS011;1662;49.310;8.134;2023-02-28T15:58:26;14.73;;;13.17;;
3299;SDS011;1662;49.310;8.134;2023-02-28T16:01:06;15.40;;;13.90;;
3299;SDS011;1662;49.310;8.134;2023-02-28T16:03:46;14.97;;;13.57;;
3299;SDS011;1662;49.310;8.134;2023-02-28T16:08:42;14.37;;;13.07;;
3299;SDS011;1662;49.310;8.134;2023-02-28T16:11:10;14.60;;;13.20;;
3299;SDS011;1662;49.310;8.134;2023-02-28T16:13:38;18.07;;;13.57;;
3299;SDS011;1662;49.310;8.134;2023-02-28T16:16:04;14.67;;;13.33;;
3299;SDS011;1662;49.310;8.134;2023-02-28T16:18:30;14.60;;;13.33;;
3299;SDS011;1662;49.310;8.134;2023-02-28T16:20:55;15.00;;;13.60;;
3299;SDS011;1662;49.310;8.134;2023-02-28T16:23:21;17.47;;;15.73;;
3299;SDS011;1662;49.310;8.134;2023-02-28T16:25:46;16.40;;;14.30;;
3299;SDS011;1662;49.310;8.134;2023-02-28T16:28:16;15.10;;;13.83;;
3299;SDS011;1662;49.310;8.134;2023-02-28T16:30:50;15.30;;;13.90;;
3299;SDS011;1662;49.310;8.134;2023-02-28T16:33:17;17.70;;;15.90;;
3299;SDS011;1662;49.310;8.134;2023-02-28T16:35:42;16.37;;;14.77;;
3299;SDS011;1662;49.310;8.134;2023-02-28T16:38:08;17.93;;;16.30;;
3299;SDS011;1662;49.310;8.134;2023-02-28T16:40:37;16.20;;;14.77;;
3299;SDS011;1662;49.310;8.134;2023-02-28T16:43:24;14.45;;;13.05;;
3299;SDS011;1662;49.310;8.134;2023-02-28T16:45:52;15.87;;;13.77;;
3299;SDS011;1662;49.310;8.134;2023-02-28T16:48:21;15.02;;;13.65;;
3299;SDS011;1662;49.310;8.134;2023-02-28T16:50:47;15.13;;;13.73;;
3299;SDS011;1662;49.310;8.134;2023-02-28T16:53:12;15.37;;;14.07;;
3299;SDS011;1662;49.310;8.134;2023-02-28T16:55:38;13.33;;;12.23;;
3299;SDS011;1662;49.310;8.134;2023-02-28T16:58:04;14.30;;;13.00;;
3299;SDS011;1662;49.310;8.134;2023-02-28T17:00:30;13.70;;;12.60;;
3299;SDS011;1662;49.310;8.134;2023-02-28T17:02:57;14.00;;;12.80;;
3299;SDS011;1662;49.310;8.134;2023-02-28T17:05:24;17.42;;;13.30;;
3299;SDS011;1662;49.310;8.134;2023-02-28T17:07:52;16.13;;;14.52;;
3299;SDS011;1662;49.310;8.134;2023-02-28T17:10:22;15.37;;;13.77;;
3299;SDS011;1662;49.310;8.134;2023-02-28T17:12:49;15.07;;;13.57;;
3299;SDS011;1662;49.310;8.134;2023-02-28T17:15:16;14.57;;;13.27;;
3299;SDS011;1662;49.310;8.134;2023-02-28T17:17:42;16.38;;;14.85;;
3299;SDS011;1662;49.310;8.134;2023-02-28T17:20:16;14.98;;;13.50;;
3299;SDS011;1662;49.310;8.134;2023-02-28T17:22:53;15.73;;;14.23;;
3299;SDS011;1662;49.310;8.134;2023-02-28T17:25:19;18.10;;;14.93;;
3299;SDS011;1662;49.310;8.134;2023-02-28T17:27:45;20.65;;;17.17;;
3299;SDS011;1662;49.310;8.134;2023-02-28T17:30:20;22.40;;;18.58;;
3299;SDS011;1662;49.310;8.134;2023-02-28T17:32:52;18.85;;;17.02;;
3299;SDS011;1662;49.310;8.134;2023-02-28T17:35:18;20.38;;;18.42;;
3299;SDS011;1662;49.310;8.134;2023-02-28T17:37:44;19.13;;;17.13;;
3299;SDS011;1662;49.310;8.134;2023-02-28T17:40:16;27.13;;;19.90;;
3299;SDS011;1662;49.310;8.134;2023-02-28T17:42:49;21.63;;;15.60;;
3299;SDS011;1662;49.310;8.134;2023-02-28T17:45:17;17.15;;;15.35;;
3299;SDS011;1662;49.310;8.134;2023-02-28T17:47:43;16.83;;;14.30;;
3299;SDS011;1662;49.310;8.134;2023-02-28T17:50:21;17.23;;;15.52;;
3299;SDS011;1662;49.310;8.134;2023-02-28T17:52:47;17.48;;;15.65;;
3299;SDS011;1662;49.310;8.134;2023-02-28T17:55:13;22.67;;;16.98;;
3299;SDS011;1662;49.310;8.134;2023-02-28T17:57:39;19.67;;;15.40;;
3299;SDS011;1662;49.310;8.134;2023-02-28T18:00:07;19.65;;;15.48;;
3299;SDS011;1662;49.310;8.134;2023-02-28T18:02:36;19.35;;;15.98;;
3299;SDS011;1662;49.310;8.134;2023-02-28T18:05:02;20.40;;;16.80;;
3299;SDS011;1662;49.310;8.134;2023-02-28T18:07:29;24.42;;;17.33;;
3299;SDS011;1662;49.310;8.134;2023-02-28T18:09:54;24.20;;;18.63;;
3299;SDS011;1662;49.310;8.134;2023-02-28T18:12:20;22.13;;;18.00;;
3299;SDS011;1662;49.310;8.134;2023-02-28T18:14:46;26.10;;;19.73;;
3299;SDS011;1662;49.310;8.134;2023-02-28T18:17:12;23.98;;;18.35;;
3299;SDS011;1662;49.310;8.134;2023-02-28T18:19:38;23.10;;;17.87;;
3299;SDS011;1662;49.310;8.134;2023-02-28T18:22:03;19.30;;;17.13;;